44A weather

Rolle Airfield
San Luis, Arizona, United States

Public forecast

Using degrees Fahrenheit for public forecast. Weather courtesy of forecast.io.

Closest aviation weather report (METAR) to Rolle Airfield

Closest report is Yuma MCAS/Yuma International Airport, 9.5 nm (17.6 km) NNE. Retrieved 2020/02/20 09:57 UTC (33 minutes ago):

KNYL 200957Z AUTO 01009KT 10SM CLR 17/M04 A3005 RMK AO2 SLP172 T01671044

Closest aviation forecast (TAF) to Rolle Airfield

Forecast is more than 12 hours old.

Closest forecast is Yuma MCAS/Yuma International Airport, 9.5 nm (17.6 km) NNE. Retrieved 2014/04/27 15:15 UTC (6 years ago):

TAF TAF COR KNYL 271500Z 2715/2815 VRB06KT 9999 FEW250 QNH2989INS BECMG 2716/2718 26007KT QNH2978INS BECMG 2806/2808 VRB05KT QNH2981INS AUTOMATED SENSOR METWATCH 2715 TIL 2815 TX22/2723Z TN10/2813Z COR 1545